Duck Lake, Michigan
Current Conditions -  °F | °C
As of 5:34 PM on Wednesday 22 Oct 2014 (Local Time) from KFPK Reporting Station
Overcast Overcast  
Wind Chill: 48°   Ceiling: 1900
Heat Index: 48°   Visibility: 10mi
Dew Point: 39°   Wind: 3mph
Humidity: 72%   Direction: 50°NE
Pressure: 30.3"   Gusts: NA
Location:  42.3865°N, 84.6975°W
Report Text: KFPK 222134Z AUTO 05003KT 10SM OVC019 09/04 A3030 RMK AO2 T00880041
Loading
Personal Weather Stations






























Interactive Weather Map
Tropical Storm Tracking
New forecast layout! Learn more

10-Day Weather Forecast

Advertisements
Track Severe Weather on mobile